createdAt,value
2018-04-29T00:00:38.895Z,3.27
2018-04-29T00:03:06.380Z,2.97
2018-04-29T00:05:33.902Z,6.00
2018-04-29T00:08:01.391Z,7.20
2018-04-29T00:10:28.916Z,1.97
2018-04-29T00:12:56.413Z,2.70
2018-04-29T00:15:23.939Z,2.40
2018-04-29T00:17:52.202Z,3.40
2018-04-29T00:20:19.682Z,2.97
2018-04-29T00:22:47.215Z,3.60
2018-04-29T00:25:14.705Z,4.73
2018-04-29T00:27:42.199Z,4.13
2018-04-29T00:30:09.706Z,4.83
2018-04-29T00:32:37.216Z,9.00
2018-04-29T00:35:04.701Z,4.13
2018-04-29T00:37:32.219Z,3.43
2018-04-29T00:39:59.722Z,2.93
2018-04-29T00:42:27.238Z,3.77
2018-04-29T00:44:55.486Z,5.70
2018-04-29T00:47:23.013Z,5.53
2018-04-29T00:49:50.500Z,2.67
2018-04-29T00:52:18.010Z,4.57
2018-04-29T00:54:45.491Z,2.50
2018-04-29T00:57:13.018Z,2.33
2018-04-29T00:59:40.501Z,4.47
2018-04-29T01:02:08.045Z,2.80
2018-04-29T01:04:35.521Z,4.73
2018-04-29T01:07:03.036Z,2.30
2018-04-29T01:09:30.517Z,3.73
2018-04-29T01:11:58.070Z,9.43
2018-04-29T01:14:25.609Z,7.73
2018-04-29T01:16:53.094Z,4.23
2018-04-29T01:19:20.619Z,2.57
2018-04-29T01:21:48.104Z,5.90
2018-04-29T01:24:16.394Z,6.73
2018-04-29T01:26:44.653Z,4.50
2018-04-29T01:29:12.159Z,5.30
2018-04-29T01:34:30.131Z,4.73
2018-04-29T01:36:58.390Z,6.03
2018-04-29T01:39:25.921Z,1.90
2018-04-29T01:41:53.418Z,3.73
2018-04-29T01:44:20.902Z,4.70
2018-04-29T01:46:48.405Z,3.90
2018-04-29T01:49:15.894Z,5.40
2018-04-29T01:51:43.457Z,9.53
2018-04-29T01:54:10.876Z,3.90
2018-04-29T01:56:38.369Z,3.40
2018-04-29T01:59:05.873Z,3.57
2018-04-29T02:01:33.350Z,8.10
2018-04-29T02:04:00.825Z,3.30
2018-04-29T02:06:28.318Z,5.30
2018-04-29T02:08:55.805Z,5.40
2018-04-29T02:11:23.328Z,3.60
2018-04-29T02:13:50.805Z,3.50
2018-04-29T02:16:18.277Z,5.90
2018-04-29T02:18:45.774Z,5.47
2018-04-29T02:21:13.245Z,4.90
2018-04-29T02:23:40.761Z,6.73
2018-04-29T02:26:09.005Z,8.17
2018-04-29T02:28:36.485Z,4.20
2018-04-29T02:31:04.769Z,7.30
2018-04-29T02:33:32.338Z,3.63
2018-04-29T02:35:59.757Z,8.43
2018-04-29T02:38:27.993Z,7.50
2018-04-29T02:40:55.517Z,7.20
2018-04-29T02:43:23.758Z,6.03
2018-04-29T02:45:51.266Z,6.53
2018-04-29T02:48:18.746Z,6.20
2018-04-29T02:50:47.078Z,6.50
2018-04-29T02:53:14.572Z,6.63
2018-04-29T02:55:42.059Z,7.60
2018-04-29T02:58:09.602Z,6.50
2018-04-29T03:00:37.109Z,6.30
2018-04-29T03:03:04.621Z,5.70
2018-04-29T03:05:32.105Z,6.00
2018-04-29T03:08:00.376Z,8.40
2018-04-29T03:10:27.860Z,6.00
2018-04-29T03:12:55.375Z,5.37
2018-04-29T03:15:22.863Z,7.77
2018-04-29T03:17:50.395Z,11.37
2018-04-29T03:20:17.880Z,8.07
2018-04-29T03:22:45.389Z,7.27
2018-04-29T03:25:13.637Z,13.37
2018-04-29T03:27:41.172Z,5.10
2018-04-29T03:30:08.657Z,6.10
2018-04-29T03:32:36.137Z,10.33
2018-04-29T03:35:03.653Z,7.80
2018-04-29T03:37:31.130Z,8.80
2018-04-29T03:39:59.401Z,10.00
2018-04-29T03:42:26.906Z,11.20
2018-04-29T03:44:54.417Z,7.83
2018-04-29T03:47:21.892Z,7.30
2018-04-29T03:49:49.410Z,8.67
2018-04-29T03:52:17.669Z,13.23
2018-04-29T03:54:45.189Z,19.00
2018-04-29T03:57:24.604Z,7.73
2018-04-29T04:00:04.853Z,11.53
2018-04-29T04:02:44.329Z,12.23
2018-04-29T04:05:11.782Z,15.23
2018-04-29T04:07:39.263Z,10.00
2018-04-29T04:10:06.776Z,8.00
2018-04-29T04:12:34.253Z,15.60
2018-04-29T04:15:01.766Z,21.97
2018-04-29T04:17:29.240Z,9.00
2018-04-29T04:19:56.773Z,8.93
2018-04-29T04:22:24.255Z,17.73
2018-04-29T04:24:51.770Z,10.27
2018-04-29T04:27:20.018Z,13.60
2018-04-29T04:29:47.489Z,11.40
2018-04-29T04:32:15.019Z,10.37
2018-04-29T04:34:42.523Z,6.97
2018-04-29T04:37:10.046Z,9.93
2018-04-29T04:39:38.301Z,5.37
2018-04-29T04:42:05.806Z,7.90
2018-04-29T04:44:34.069Z,6.60
2018-04-29T04:47:01.589Z,6.50
2018-04-29T04:49:29.075Z,7.67
2018-04-29T04:51:56.586Z,8.10
2018-04-29T04:54:25.049Z,7.13
2018-04-29T04:56:52.593Z,6.50
2018-04-29T04:59:20.075Z,11.10
2018-04-29T05:01:47.558Z,8.40
2018-04-29T05:04:15.093Z,13.20
2018-04-29T05:06:43.342Z,7.83
2018-04-29T05:09:10.881Z,7.10
2018-04-29T05:11:39.210Z,8.03
2018-04-29T05:14:06.729Z,3.70
2018-04-29T05:16:34.261Z,12.10
2018-04-29T05:19:01.810Z,7.37
2018-04-29T05:21:29.304Z,8.13
2018-04-29T05:23:56.811Z,8.20
2018-04-29T05:26:24.312Z,7.30
2018-04-29T05:28:52.606Z,5.07
2018-04-29T05:31:20.102Z,8.33
2018-04-29T05:33:47.618Z,7.43
2018-04-29T05:36:15.104Z,7.87
2018-04-29T05:38:42.631Z,7.60
2018-04-29T05:41:10.166Z,7.10
2018-04-29T05:43:37.658Z,5.03
2018-04-29T05:46:05.155Z,8.67
2018-04-29T05:48:33.479Z,8.23
2018-04-29T05:51:00.969Z,6.17
2018-04-29T05:53:28.458Z,5.17
2018-04-29T05:55:55.969Z,4.17
2018-04-29T05:58:24.219Z,3.83
2018-04-29T06:00:51.746Z,5.57
2018-04-29T06:03:19.251Z,4.73
2018-04-29T06:05:46.775Z,5.60
2018-04-29T06:08:15.066Z,4.97
2018-04-29T06:10:42.597Z,5.53
2018-04-29T06:13:10.094Z,7.70
2018-04-29T06:15:38.481Z,7.73
2018-04-29T06:18:06.083Z,7.50
2018-04-29T06:20:33.630Z,6.70
2018-04-29T06:23:01.106Z,5.80
2018-04-29T06:25:29.390Z,7.63
2018-04-29T06:27:56.874Z,5.80
2018-04-29T06:30:24.398Z,7.07
2018-04-29T06:32:51.881Z,4.80
2018-04-29T06:35:19.357Z,9.97
2018-04-29T06:37:46.885Z,6.40
2018-04-29T06:40:14.373Z,7.50
2018-04-29T06:42:41.911Z,5.67
2018-04-29T06:45:09.396Z,8.37
2018-04-29T06:47:36.929Z,6.77
2018-04-29T06:50:04.418Z,16.53
2018-04-29T06:52:31.949Z,6.13
2018-04-29T06:54:59.444Z,9.90
2018-04-29T06:57:27.739Z,10.10
2018-04-29T06:59:55.302Z,7.00
2018-04-29T07:02:22.833Z,9.23
2018-04-29T07:04:50.334Z,7.50
2018-04-29T07:07:17.836Z,5.43
2018-04-29T07:09:46.106Z,10.10
2018-04-29T07:12:13.650Z,9.50
2018-04-29T07:14:41.128Z,5.47
2018-04-29T07:17:08.656Z,8.20
2018-04-29T07:19:36.145Z,8.97
2018-04-29T07:22:03.658Z,9.73
2018-04-29T07:24:31.152Z,3.73
2018-04-29T07:26:59.397Z,8.60
2018-04-29T07:29:26.905Z,7.50
2018-04-29T07:31:54.381Z,5.83
2018-04-29T07:34:22.632Z,7.67
2018-04-29T07:36:50.152Z,7.97
2018-04-29T07:39:17.710Z,9.07
2018-04-29T07:41:45.965Z,4.27
2018-04-29T07:44:13.493Z,10.60
2018-04-29T07:46:40.997Z,5.70
2018-04-29T07:49:08.524Z,6.20
2018-04-29T07:51:36.777Z,8.10
2018-04-29T07:54:04.299Z,7.80
2018-04-29T07:56:31.838Z,9.23
2018-04-29T07:59:00.168Z,7.73
2018-04-29T08:01:27.703Z,7.03
2018-04-29T08:03:55.693Z,7.97
2018-04-29T08:06:23.947Z,7.20
2018-04-29T08:08:51.496Z,5.23
2018-04-29T08:11:19.010Z,5.30
2018-04-29T08:13:46.493Z,5.47
2018-04-29T08:16:14.014Z,7.10
2018-04-29T08:18:41.497Z,6.70
2018-04-29T08:21:09.026Z,6.27
2018-04-29T08:23:36.538Z,5.60
2018-04-29T08:26:04.053Z,8.70
2018-04-29T08:28:32.329Z,7.17
2018-04-29T08:30:59.847Z,4.60
2018-04-29T08:33:27.337Z,5.70
2018-04-29T08:35:54.825Z,4.30
2018-04-29T08:38:22.369Z,4.80
2018-04-29T08:40:49.889Z,5.60
2018-04-29T08:43:17.427Z,4.20
2018-04-29T08:45:44.918Z,10.60
2018-04-29T08:48:12.398Z,6.30
2018-04-29T08:50:39.932Z,5.10
2018-04-29T08:53:07.418Z,7.17
2018-04-29T08:55:34.918Z,9.53
2018-04-29T08:58:02.437Z,5.17
2018-04-29T09:00:29.921Z,3.60
2018-04-29T09:02:57.445Z,7.17
2018-04-29T09:05:25.694Z,8.57
2018-04-29T09:07:53.214Z,8.20
2018-04-29T09:10:20.854Z,8.10
2018-04-29T09:12:48.301Z,8.60
2018-04-29T09:15:15.790Z,9.10
2018-04-29T09:17:43.317Z,7.53
2018-04-29T09:20:10.870Z,6.23
2018-04-29T09:22:38.395Z,5.83
2018-04-29T09:25:05.873Z,5.63
2018-04-29T09:27:33.382Z,6.80
2018-04-29T09:30:00.877Z,7.80
2018-04-29T09:32:28.402Z,4.47
2018-04-29T09:34:55.903Z,7.40
2018-04-29T09:37:23.432Z,5.00
2018-04-29T09:39:50.913Z,3.37
2018-04-29T09:42:18.443Z,5.93
2018-04-29T09:44:45.925Z,5.37
2018-04-29T09:47:13.473Z,5.60
2018-04-29T09:49:40.948Z,6.10
2018-04-29T09:52:08.428Z,6.43
2018-04-29T09:54:35.938Z,4.13
2018-04-29T09:57:03.425Z,3.80
2018-04-29T09:59:31.709Z,3.83
2018-04-29T10:02:02.896Z,4.60
2018-04-29T10:04:30.414Z,3.50
2018-04-29T10:06:57.901Z,4.17
2018-04-29T10:09:25.445Z,6.00
2018-04-29T10:11:52.944Z,5.97
2018-04-29T10:14:20.560Z,4.33
2018-04-29T10:16:48.041Z,4.43
2018-04-29T10:19:15.817Z,7.70
2018-04-29T10:21:43.332Z,4.60
2018-04-29T10:24:10.868Z,5.90
2018-04-29T10:26:38.350Z,5.53
2018-04-29T10:29:05.879Z,7.10
2018-04-29T10:31:33.377Z,7.37
2018-04-29T10:34:00.941Z,12.57
2018-04-29T10:36:28.428Z,4.47
2018-04-29T10:38:56.173Z,4.10
2018-04-29T10:41:23.662Z,6.73
2018-04-29T10:43:51.249Z,6.07
2018-04-29T10:46:18.845Z,9.37
2018-04-29T10:48:46.326Z,8.97
2018-04-29T10:51:13.845Z,4.67
2018-04-29T10:53:41.317Z,8.33
2018-04-29T10:56:08.837Z,4.50
2018-04-29T10:58:36.314Z,5.83
2018-04-29T11:01:03.854Z,5.57
2018-04-29T11:03:31.348Z,5.50
2018-04-29T11:05:58.871Z,7.30
2018-04-29T11:08:26.349Z,8.00
2018-04-29T11:10:53.875Z,7.60
2018-04-29T11:13:21.367Z,4.60
2018-04-29T11:15:49.654Z,8.27
2018-04-29T11:18:17.910Z,5.43
2018-04-29T11:20:45.428Z,6.73
2018-04-29T11:23:12.916Z,8.87
2018-04-29T11:25:40.503Z,3.83
2018-04-29T11:28:07.982Z,7.10
2018-04-29T11:30:35.468Z,4.00
2018-04-29T11:33:03.001Z,4.87
2018-04-29T11:35:30.493Z,7.87
2018-04-29T11:37:58.013Z,6.17
2018-04-29T11:40:25.570Z,4.50
2018-04-29T11:42:53.038Z,6.00
2018-04-29T11:45:21.304Z,5.87
2018-04-29T11:47:48.826Z,5.93
2018-04-29T11:50:16.323Z,6.97
2018-04-29T11:52:43.865Z,6.67
2018-04-29T11:55:12.117Z,6.17
2018-04-29T11:57:39.637Z,5.67
2018-04-29T12:00:07.119Z,7.67
2018-04-29T12:02:34.656Z,6.33
2018-04-29T12:05:02.902Z,7.27
2018-04-29T12:07:30.426Z,8.70
2018-04-29T12:09:57.957Z,7.20
2018-04-29T12:12:25.442Z,5.70
2018-04-29T12:14:52.927Z,4.93
2018-04-29T12:17:21.188Z,4.50
2018-04-29T12:19:48.716Z,5.83
2018-04-29T12:22:16.213Z,9.10
2018-04-29T12:24:43.735Z,8.80
2018-04-29T12:27:11.986Z,6.93
2018-04-29T12:29:39.517Z,8.23
2018-04-29T12:32:07.009Z,12.37
2018-04-29T12:34:34.485Z,6.63
2018-04-29T12:37:02.008Z,6.60
2018-04-29T12:39:29.541Z,4.77
2018-04-29T12:41:57.027Z,4.77
2018-04-29T12:44:24.644Z,4.37
2018-04-29T12:46:52.143Z,6.97
2018-04-29T12:49:19.665Z,3.53
2018-04-29T12:51:47.904Z,2.87
2018-04-29T12:54:15.421Z,7.33
2018-04-29T12:56:43.673Z,9.10
2018-04-29T12:59:11.218Z,8.03
2018-04-29T13:01:38.735Z,7.00
2018-04-29T13:04:06.224Z,5.73
2018-04-29T13:06:34.516Z,4.30
2018-04-29T13:09:02.777Z,6.90
2018-04-29T13:11:30.302Z,3.43
2018-04-29T13:13:57.796Z,8.03
2018-04-29T13:16:25.369Z,2.97
2018-04-29T13:18:52.935Z,2.70
2018-04-29T13:21:20.449Z,6.37
2018-04-29T13:23:47.974Z,7.70
2018-04-29T13:26:15.494Z,7.40
2018-04-29T13:28:42.979Z,5.50
2018-04-29T13:31:11.229Z,4.77
2018-04-29T13:33:38.754Z,10.80
2018-04-29T13:36:06.241Z,5.20
2018-04-29T13:38:33.765Z,9.30
2018-04-29T13:41:01.257Z,6.83
2018-04-29T13:43:28.776Z,7.30
2018-04-29T13:45:56.261Z,6.13
2018-04-29T13:48:23.777Z,4.53
2018-04-29T13:50:51.305Z,5.13
2018-04-29T13:53:18.821Z,3.40
2018-04-29T13:55:46.295Z,4.23
2018-04-29T13:58:13.825Z,4.30
2018-04-29T14:00:41.308Z,8.97
2018-04-29T14:03:08.854Z,11.07
2018-04-29T14:05:36.334Z,11.30
2018-04-29T14:08:03.857Z,7.57
2018-04-29T14:10:31.400Z,4.50
2018-04-29T14:12:58.909Z,4.57
2018-04-29T14:15:26.429Z,9.10
2018-04-29T14:17:53.917Z,4.23
2018-04-29T14:20:22.219Z,5.60
2018-04-29T14:22:50.467Z,8.00
2018-04-29T14:25:18.789Z,4.77
2018-04-29T14:27:46.279Z,7.87
2018-04-29T14:30:13.789Z,6.30
2018-04-29T14:32:41.277Z,7.53
2018-04-29T14:35:08.756Z,6.80
2018-04-29T14:37:36.289Z,5.83
2018-04-29T14:40:03.800Z,4.63
2018-04-29T14:42:31.283Z,5.63
2018-04-29T14:44:59.528Z,3.70
2018-04-29T14:47:27.038Z,5.87
2018-04-29T14:49:54.513Z,7.13
2018-04-29T14:52:23.873Z,5.70
2018-04-29T14:54:51.405Z,6.00
2018-04-29T14:57:19.694Z,3.43
2018-04-29T14:59:47.939Z,4.97
2018-04-29T15:02:15.580Z,5.57
2018-04-29T15:04:43.070Z,3.93
2018-04-29T15:07:10.609Z,9.50
2018-04-29T15:09:38.109Z,7.60
2018-04-29T15:12:05.629Z,7.30
2018-04-29T15:14:33.124Z,4.97
2018-04-29T15:17:00.661Z,3.17
2018-04-29T15:19:54.074Z,6.70
2018-04-29T15:22:21.599Z,6.50
2018-04-29T15:24:49.091Z,9.50
2018-04-29T15:27:16.631Z,7.20
2018-04-29T15:29:44.126Z,8.93
2018-04-29T15:32:11.609Z,7.63
2018-04-29T15:34:39.127Z,5.40
2018-04-29T15:37:06.606Z,5.13
2018-04-29T15:39:34.134Z,6.93
2018-04-29T15:42:01.633Z,6.33
2018-04-29T15:44:29.149Z,4.53
2018-04-29T15:46:56.632Z,7.57
2018-04-29T15:49:24.170Z,12.80
2018-04-29T15:51:51.667Z,6.30
2018-04-29T15:54:19.191Z,7.70
2018-04-29T15:56:46.666Z,8.23
2018-04-29T15:59:14.236Z,5.60
2018-04-29T16:01:41.721Z,4.10
2018-04-29T16:04:09.270Z,8.30
2018-04-29T16:06:36.774Z,6.53
2018-04-29T16:09:04.294Z,14.27
2018-04-29T16:11:32.550Z,4.70
2018-04-29T16:14:00.106Z,7.43
2018-04-29T16:16:27.618Z,5.87
2018-04-29T16:18:55.131Z,3.10
2018-04-29T16:21:22.658Z,5.43
2018-04-29T16:23:50.213Z,4.40
2018-04-29T16:26:17.715Z,3.43
2018-04-29T16:28:45.216Z,5.50
2018-04-29T16:31:12.749Z,5.03
2018-04-29T16:33:41.016Z,6.80
2018-04-29T16:36:08.500Z,5.10
2018-04-29T16:38:36.025Z,4.23
2018-04-29T16:41:03.663Z,5.77
2018-04-29T16:43:31.177Z,6.47
2018-04-29T16:45:58.713Z,5.23
2018-04-29T16:48:27.011Z,5.47
2018-04-29T16:50:54.526Z,3.50
2018-04-29T16:53:22.078Z,4.07
2018-04-29T16:55:49.581Z,7.30
2018-04-29T16:58:17.106Z,3.17
2018-04-29T17:00:44.609Z,3.87
2018-04-29T17:03:12.173Z,4.07
2018-04-29T17:05:39.735Z,4.97
2018-04-29T17:08:07.986Z,6.40
2018-04-29T17:10:36.238Z,6.17
2018-04-29T17:13:03.755Z,3.30
2018-04-29T17:15:32.011Z,5.90
2018-04-29T17:17:59.525Z,3.80
2018-04-29T17:20:27.034Z,8.83
2018-04-29T17:22:54.557Z,3.77
2018-04-29T17:25:22.046Z,7.03
2018-04-29T17:27:49.557Z,4.37
2018-04-29T17:30:17.115Z,6.70
2018-04-29T17:32:44.617Z,4.20
2018-04-29T17:35:12.105Z,4.03
2018-04-29T17:37:40.355Z,4.67
2018-04-29T17:40:07.874Z,4.50
2018-04-29T17:42:36.138Z,4.03
2018-04-29T17:45:03.661Z,3.30
2018-04-29T17:47:31.922Z,4.37
2018-04-29T17:49:59.446Z,6.57
2018-04-29T17:52:26.927Z,7.57
2018-04-29T17:54:54.437Z,4.47
2018-04-29T17:57:22.686Z,7.30
2018-04-29T17:59:50.213Z,5.17
2018-04-29T18:02:17.699Z,6.77
2018-04-29T18:04:45.219Z,10.53
2018-04-29T18:07:12.713Z,5.53
2018-04-29T18:09:40.995Z,9.87
2018-04-29T18:12:09.251Z,9.43
2018-04-29T18:14:36.782Z,8.20
2018-04-29T18:17:04.294Z,8.37
2018-04-29T18:19:31.789Z,6.97
2018-04-29T18:21:59.262Z,5.57
2018-04-29T18:24:27.554Z,9.10
2018-04-29T18:26:55.033Z,4.43
2018-04-29T18:29:23.295Z,3.90
2018-04-29T18:31:50.859Z,5.87
2018-04-29T18:34:18.347Z,5.30
2018-04-29T18:36:46.652Z,4.17
2018-04-29T18:39:14.153Z,6.37
2018-04-29T18:41:41.666Z,6.03
2018-04-29T18:44:09.173Z,4.90
2018-04-29T18:46:37.454Z,5.23
2018-04-29T18:49:04.938Z,14.27
2018-04-29T18:51:33.464Z,12.70
2018-04-29T18:54:00.723Z,5.07
2018-04-29T18:56:28.282Z,4.90
2018-04-29T18:58:55.782Z,5.13
2018-04-29T19:01:23.296Z,5.37
2018-04-29T19:03:50.781Z,8.93
2018-04-29T19:06:19.073Z,5.17
2018-04-29T19:08:46.554Z,9.10
2018-04-29T19:11:14.085Z,14.13
2018-04-29T19:13:41.581Z,14.30
2018-04-29T19:16:09.107Z,11.33
2018-04-29T19:18:36.586Z,12.43
2018-04-29T19:21:04.072Z,13.77
2018-04-29T19:23:31.601Z,7.87
2018-04-29T19:25:59.087Z,8.73
2018-04-29T19:28:26.607Z,8.87
2018-04-29T19:30:54.094Z,11.30
2018-04-29T19:33:21.613Z,12.73
2018-04-29T19:35:49.099Z,7.60
2018-04-29T19:38:16.617Z,4.70
2018-04-29T19:40:44.137Z,4.77
2018-04-29T19:43:11.662Z,7.20
2018-04-29T19:45:39.153Z,8.13
2018-04-29T19:48:06.774Z,6.57
2018-04-29T19:50:34.263Z,8.47
2018-04-29T19:53:01.949Z,15.57
2018-04-29T19:55:29.446Z,7.40
2018-04-29T19:57:57.012Z,6.23
2018-04-29T20:00:24.513Z,7.40
2018-04-29T20:02:52.469Z,15.23
2018-04-29T20:05:20.093Z,8.97
2018-04-29T20:07:48.350Z,11.20
2018-04-29T20:10:15.873Z,10.10
2018-04-29T20:12:43.385Z,10.20
2018-04-29T20:15:10.918Z,7.03
2018-04-29T20:17:38.395Z,9.83
2018-04-29T20:20:05.931Z,6.30
2018-04-29T20:22:33.433Z,7.73
2018-04-29T20:25:01.075Z,15.73
2018-04-29T20:27:28.566Z,9.10
2018-04-29T20:29:56.118Z,10.80
2018-04-29T20:32:35.441Z,6.73
2018-04-29T20:35:02.982Z,8.87
2018-04-29T20:37:30.506Z,12.17
2018-04-29T20:39:58.065Z,8.23
2018-04-29T20:42:25.544Z,7.33
2018-04-29T20:44:53.033Z,9.10
2018-04-29T20:47:21.313Z,5.60
2018-04-29T20:49:48.821Z,9.13
2018-04-29T20:52:16.366Z,6.37
2018-04-29T20:54:44.619Z,9.53
2018-04-29T20:57:12.138Z,10.03
2018-04-29T20:59:39.754Z,7.10
2018-04-29T21:02:07.274Z,8.90
2018-04-29T21:04:35.538Z,11.23
2018-04-29T21:07:03.111Z,11.57
2018-04-29T21:09:30.599Z,6.53
2018-04-29T21:11:58.131Z,5.47
2018-04-29T21:14:25.699Z,7.63
2018-04-29T21:16:54.213Z,5.70
2018-04-29T21:19:21.709Z,6.00
2018-04-29T21:21:49.198Z,7.00
2018-04-29T21:24:16.717Z,6.87
2018-04-29T21:26:44.211Z,5.90
2018-04-29T21:29:11.733Z,6.30
2018-04-29T21:31:39.257Z,4.63
2018-04-29T21:34:06.757Z,5.63
2018-04-29T21:36:34.280Z,5.73
2018-04-29T21:39:01.838Z,6.33
2018-04-29T21:41:29.327Z,7.10
2018-04-29T21:43:56.851Z,7.07
2018-04-29T21:46:24.376Z,6.07
2018-04-29T21:48:51.910Z,13.27
2018-04-29T21:51:19.398Z,7.67
2018-04-29T21:53:46.916Z,10.30
2018-04-29T21:56:14.441Z,6.47
2018-04-29T21:58:41.972Z,12.80
2018-04-29T22:01:10.222Z,7.20
2018-04-29T22:03:37.701Z,9.53
2018-04-29T22:06:06.015Z,10.40
2018-04-29T22:08:33.507Z,11.03
2018-04-29T22:11:01.030Z,8.93
2018-04-29T22:13:29.315Z,5.87
2018-04-29T22:15:56.828Z,8.53
2018-04-29T22:18:24.313Z,15.23
2018-04-29T22:20:51.845Z,7.90
2018-04-29T22:23:19.336Z,14.00
2018-04-29T22:25:47.622Z,19.90
2018-04-29T22:28:15.897Z,20.07
2018-04-29T22:30:43.426Z,22.20
2018-04-29T22:33:10.938Z,27.23
2018-04-29T22:35:38.442Z,29.97
2018-04-29T22:38:05.972Z,30.50
2018-04-29T22:40:33.478Z,30.33
2018-04-29T22:43:01.017Z,36.33
2018-04-29T22:45:28.508Z,36.20
2018-04-29T22:47:56.025Z,31.07
2018-04-29T22:50:23.529Z,18.20
2018-04-29T22:52:51.056Z,20.83
2018-04-29T22:55:18.549Z,15.13
2018-04-29T22:57:46.067Z,20.63
2018-04-29T23:00:14.325Z,8.77
2018-04-29T23:02:41.836Z,7.40
2018-04-29T23:05:10.086Z,7.30
2018-04-29T23:07:37.610Z,13.90
2018-04-29T23:10:05.100Z,8.23
2018-04-29T23:12:32.627Z,6.00
2018-04-29T23:15:00.875Z,4.03
2018-04-29T23:17:28.370Z,3.30
2018-04-29T23:19:55.904Z,3.20
2018-04-29T23:22:23.389Z,2.97
2018-04-29T23:24:50.929Z,2.97
2018-04-29T23:27:18.411Z,4.20
2018-04-29T23:29:45.946Z,3.67
2018-04-29T23:32:14.199Z,7.03
2018-04-29T23:34:41.685Z,2.60
2018-04-29T23:37:09.198Z,3.03
2018-04-29T23:39:36.717Z,3.03
2018-04-29T23:42:04.208Z,3.03
2018-04-29T23:44:31.735Z,3.33
2018-04-29T23:46:59.218Z,2.13
2018-04-29T23:49:26.698Z,2.70
2018-04-29T23:51:54.210Z,3.40
2018-04-29T23:54:22.481Z,4.73
2018-04-29T23:56:49.998Z,5.73
2018-04-29T23:59:17.482Z,3.33
